createdAt,value
2022-09-03T00:00:32.829Z,98855.78
2022-09-03T00:03:06.026Z,98859.34
2022-09-03T00:05:40.099Z,98854.00
2022-09-03T00:08:10.432Z,98853.28
2022-09-03T00:10:46.981Z,98852.50
2022-09-03T00:13:23.253Z,98852.66
2022-09-03T00:15:53.361Z,98859.16
2022-09-03T00:18:23.289Z,98854.84
2022-09-03T00:20:59.454Z,98853.66
2022-09-03T00:23:28.823Z,98846.13
2022-09-03T00:26:13.850Z,98850.84
2022-09-03T00:29:06.599Z,98855.59
2022-09-03T00:31:42.884Z,98853.84
2022-09-03T00:34:24.053Z,98851.97
2022-09-03T00:36:50.616Z,98849.75
2022-09-03T00:42:10.838Z,98840.25
2022-09-03T00:45:15.292Z,98847.97
2022-09-03T00:47:59.863Z,98843.91
2022-09-03T00:50:46.770Z,98833.16
2022-09-03T00:53:22.981Z,98841.66
2022-09-03T00:56:06.943Z,98831.13
2022-09-03T00:58:54.990Z,98834.31
2022-09-03T01:01:43.751Z,98833.47
2022-09-03T01:05:00.100Z,98830.13
2022-09-03T01:07:33.236Z,98832.81
2022-09-03T01:10:08.570Z,98828.44
2022-09-03T01:12:47.602Z,98827.72
2022-09-03T01:15:19.507Z,98838.97
2022-09-03T01:17:52.806Z,98830.09
2022-09-03T01:20:43.555Z,98838.69
2022-09-03T01:23:39.214Z,98837.03
2022-09-03T01:26:45.289Z,98844.56
2022-09-03T01:29:20.847Z,98842.41
2022-09-03T01:31:57.488Z,98846.06
2022-09-03T01:34:43.062Z,98843.72
2022-09-03T01:37:12.166Z,98845.38
2022-09-03T01:39:53.900Z,98842.97
2022-09-03T01:42:48.422Z,98841.94
2022-09-03T01:45:23.666Z,98832.25
2022-09-03T01:47:53.173Z,98833.13
2022-09-03T01:50:57.716Z,98836.66
2022-09-03T01:53:46.011Z,98832.34
2022-09-03T01:56:34.542Z,98832.72
2022-09-03T01:59:42.190Z,98835.63
2022-09-03T02:02:21.302Z,98835.34
2022-09-03T02:05:02.342Z,98834.88
2022-09-03T02:07:35.895Z,98834.59
2022-09-03T02:10:05.691Z,98828.06
2022-09-03T02:12:36.191Z,98838.59
2022-09-03T02:15:10.890Z,98829.63
2022-09-03T02:17:37.993Z,98827.50
2022-09-03T02:20:11.769Z,98823.19
2022-09-03T02:22:43.425Z,98820.13
2022-09-03T02:25:11.037Z,98816.75
2022-09-03T02:27:38.894Z,98824.03
2022-09-03T02:30:06.739Z,98819.56
2022-09-03T02:32:33.324Z,98817.97
2022-09-03T02:35:00.074Z,98817.44
2022-09-03T02:37:26.898Z,98816.50
2022-09-03T02:39:53.847Z,98814.53
2022-09-03T02:42:20.582Z,98817.22
2022-09-03T02:45:03.941Z,98812.66
2022-09-03T02:47:33.168Z,98822.75
2022-09-03T02:49:59.753Z,98814.63
2022-09-03T02:52:26.360Z,98817.59
2022-09-03T02:54:52.805Z,98826.28
2022-09-03T02:57:27.249Z,98818.34
2022-09-03T02:59:54.658Z,98823.19
2022-09-03T03:02:21.251Z,98810.72
2022-09-03T03:04:47.894Z,98813.97
2022-09-03T03:07:14.461Z,98813.78
2022-09-03T03:09:40.922Z,98803.53
2022-09-03T03:12:08.853Z,98803.63
2022-09-03T03:14:35.307Z,98806.81
2022-09-03T03:17:01.851Z,98797.84
2022-09-03T03:19:28.366Z,98790.59
2022-09-03T03:21:56.577Z,98795.03
2022-09-03T03:24:23.055Z,98804.53
2022-09-03T03:26:50.650Z,98796.78
2022-09-03T03:29:17.895Z,98804.66
2022-09-03T03:31:44.860Z,98793.47
2022-09-03T03:34:12.468Z,98797.88
2022-09-03T03:36:39.160Z,98791.50
2022-09-03T03:39:05.800Z,98793.03
2022-09-03T03:41:35.218Z,98790.22
2022-09-03T03:44:05.075Z,98796.16
2022-09-03T03:46:37.725Z,98805.50
2022-09-03T03:49:06.621Z,98809.78
2022-09-03T03:51:34.536Z,98804.22
2022-09-03T03:54:05.076Z,98808.50
2022-09-03T03:56:32.977Z,98799.06
2022-09-03T03:58:59.824Z,98798.34
2022-09-03T04:01:28.209Z,98797.97
2022-09-03T04:03:56.632Z,98795.25
2022-09-03T04:06:23.462Z,98791.34
2022-09-03T04:08:50.521Z,98793.66
2022-09-03T04:11:19.516Z,98807.75
2022-09-03T04:13:47.304Z,98797.75
2022-09-03T04:16:18.856Z,98803.38
2022-09-03T04:18:45.846Z,98801.41
2022-09-03T04:21:14.752Z,98789.56
2022-09-03T04:23:44.742Z,98793.38
2022-09-03T04:26:14.845Z,98790.00
2022-09-03T04:28:42.082Z,98791.88
2022-09-03T04:31:12.360Z,98797.66
2022-09-03T04:33:39.718Z,98789.72
2022-09-03T04:36:18.016Z,98784.72
2022-09-03T04:38:46.689Z,98784.59
2022-09-03T04:41:15.585Z,98783.03
2022-09-03T04:43:43.447Z,98781.53
2022-09-03T04:46:16.388Z,98782.56
2022-09-03T04:48:48.619Z,98786.66
2022-09-03T04:51:17.717Z,98787.31
2022-09-03T04:53:46.411Z,98782.16
2022-09-03T04:56:21.525Z,98791.78
2022-09-03T04:58:51.015Z,98787.72
2022-09-03T05:01:22.700Z,98788.81
2022-09-03T05:03:52.239Z,98794.59
2022-09-03T05:06:19.432Z,98795.72
2022-09-03T05:08:51.002Z,98801.78
2022-09-03T05:11:18.312Z,98799.81
2022-09-03T05:13:49.006Z,98803.09
2022-09-03T05:16:16.316Z,98802.06
2022-09-03T05:18:42.929Z,98801.88
2022-09-03T05:21:11.812Z,98805.41
2022-09-03T05:23:44.284Z,98812.31
2022-09-03T05:26:16.109Z,98806.63
2022-09-03T05:28:45.138Z,98809.34
2022-09-03T05:31:17.168Z,98807.91
2022-09-03T05:33:49.446Z,98816.69
2022-09-03T05:36:18.888Z,98811.34
2022-09-03T05:38:47.428Z,98808.00
2022-09-03T05:41:15.124Z,98809.28
2022-09-03T05:43:42.581Z,98811.06
2022-09-03T05:46:11.510Z,98802.19
2022-09-03T05:48:40.172Z,98803.50
2022-09-03T05:51:10.158Z,98805.13
2022-09-03T05:53:39.059Z,98806.88
2022-09-03T05:56:09.341Z,98812.13
2022-09-03T05:58:39.290Z,98814.91
2022-09-03T06:01:17.095Z,98816.59
2022-09-03T06:03:45.111Z,98817.31
2022-09-03T06:06:13.980Z,98803.84
2022-09-03T06:08:42.071Z,98820.72
2022-09-03T06:11:09.296Z,98822.00
2022-09-03T06:13:35.834Z,98823.97
2022-09-03T06:16:07.482Z,98830.19
2022-09-03T06:18:34.061Z,98835.69
2022-09-03T06:21:06.737Z,98832.59
2022-09-03T06:23:35.281Z,98830.72
2022-09-03T06:26:11.923Z,98829.50
2022-09-03T06:28:41.120Z,98825.81
2022-09-03T06:31:10.178Z,98819.44
2022-09-03T06:33:38.164Z,98828.00
2022-09-03T06:36:09.027Z,98826.38
2022-09-03T06:38:37.154Z,98824.56
2022-09-03T06:41:12.989Z,98822.72
2022-09-03T06:43:42.092Z,98828.63
2022-09-03T06:46:11.746Z,98828.63
2022-09-03T06:48:40.733Z,98830.03
2022-09-03T06:51:08.985Z,98823.06
2022-09-03T06:53:38.150Z,98822.31
2022-09-03T06:56:07.771Z,98822.19
2022-09-03T06:58:37.668Z,98827.19
2022-09-03T07:01:10.744Z,98827.84
2022-09-03T07:03:38.452Z,98829.59
2022-09-03T07:06:11.035Z,98830.69
2022-09-03T07:08:37.622Z,98833.66
2022-09-03T07:11:09.469Z,98824.16
2022-09-03T07:13:41.724Z,98828.44
2022-09-03T07:16:14.043Z,98830.34
2022-09-03T07:18:40.968Z,98833.53
2022-09-03T07:21:11.299Z,98834.16
2022-09-03T07:23:39.809Z,98832.88
2022-09-03T07:26:19.906Z,98837.69
2022-09-03T07:28:47.107Z,98841.44
2022-09-03T07:31:19.641Z,98834.16
2022-09-03T07:33:47.267Z,98839.81
2022-09-03T07:36:17.575Z,98834.59
2022-09-03T07:38:45.489Z,98839.81
2022-09-03T07:41:27.020Z,98828.09
2022-09-03T07:43:56.991Z,98830.19
2022-09-03T07:46:27.267Z,98828.94
2022-09-03T07:48:56.531Z,98833.16
2022-09-03T07:51:26.537Z,98836.06
2022-09-03T07:53:56.163Z,98835.22
2022-09-03T07:56:23.019Z,98838.75
2022-09-03T07:58:50.778Z,98842.56
2022-09-03T08:01:19.805Z,98847.78
2022-09-03T08:03:49.321Z,98856.56
2022-09-03T08:06:17.345Z,98862.34
2022-09-03T08:08:46.621Z,98867.16
2022-09-03T08:11:17.463Z,98865.66
2022-09-03T08:13:49.702Z,98869.63
2022-09-03T08:16:21.084Z,98869.41
2022-09-03T08:18:50.262Z,98869.00
2022-09-03T08:21:20.098Z,98875.06
2022-09-03T08:23:50.424Z,98873.59
2022-09-03T08:26:18.557Z,98871.28
2022-09-03T08:28:46.077Z,98871.09
2022-09-03T08:31:19.814Z,98875.72
2022-09-03T08:33:49.044Z,98869.88
2022-09-03T08:36:19.967Z,98868.63
2022-09-03T08:38:46.839Z,98875.34
2022-09-03T08:41:33.998Z,98871.53
2022-09-03T08:44:20.229Z,98876.97
2022-09-03T08:46:59.800Z,98885.34
2022-09-03T08:49:41.472Z,98879.50
2022-09-03T08:52:24.894Z,98882.22
2022-09-03T08:54:55.786Z,98887.88
2022-09-03T08:57:22.665Z,98887.28
2022-09-03T08:59:53.564Z,98881.44
2022-09-03T09:02:28.939Z,98886.19
2022-09-03T09:05:06.263Z,98892.03
2022-09-03T09:08:08.079Z,98883.06
2022-09-03T09:10:47.322Z,98886.63
2022-09-03T09:13:19.953Z,98890.00
2022-09-03T09:16:15.677Z,98884.56
2022-09-03T09:19:01.053Z,98870.78
2022-09-03T09:21:32.228Z,98873.72
2022-09-03T09:24:05.287Z,98884.16
2022-09-03T09:26:33.499Z,98873.31
2022-09-03T09:29:10.229Z,98873.72
2022-09-03T09:31:39.981Z,98876.19
2022-09-03T09:34:08.312Z,98873.72
2022-09-03T09:36:44.594Z,98873.91
2022-09-03T09:39:12.370Z,98870.75
2022-09-03T09:41:38.956Z,98866.19
2022-09-03T09:44:05.681Z,98868.22
2022-09-03T09:46:38.040Z,98869.50
2022-09-03T09:49:28.666Z,98874.06
2022-09-03T09:52:12.112Z,98872.81
2022-09-03T09:54:40.510Z,98863.53
2022-09-03T09:57:17.807Z,98864.81
2022-09-03T09:59:46.197Z,98857.84
2022-09-03T10:02:27.103Z,98867.38
2022-09-03T10:04:59.021Z,98865.53
2022-09-03T10:07:31.107Z,98869.34
2022-09-03T10:10:06.453Z,98864.84
2022-09-03T10:12:36.467Z,98866.41
2022-09-03T10:15:17.923Z,98868.88
2022-09-03T10:18:28.233Z,98871.78
2022-09-03T10:21:04.877Z,98874.34
2022-09-03T10:23:45.197Z,98875.25
2022-09-03T10:26:16.922Z,98878.16
2022-09-03T10:28:49.229Z,98877.72
2022-09-03T10:31:24.903Z,98881.94
2022-09-03T10:33:55.406Z,98896.28
2022-09-03T10:36:46.005Z,98897.19
2022-09-03T10:39:23.841Z,98894.09
2022-09-03T10:42:03.590Z,98895.41
2022-09-03T10:44:40.162Z,98898.00
2022-09-03T10:47:44.221Z,98892.16
2022-09-03T10:50:16.652Z,98897.16
2022-09-03T10:53:24.785Z,98887.38
2022-09-03T10:56:03.241Z,98884.28
2022-09-03T10:58:38.172Z,98881.22
2022-09-03T11:01:24.135Z,98869.03
2022-09-03T11:04:14.298Z,98878.47
2022-09-03T11:06:52.993Z,98873.41
2022-09-03T11:09:38.169Z,98868.78
2022-09-03T11:12:08.161Z,98873.41
2022-09-03T11:14:40.692Z,98873.53
2022-09-03T11:17:20.581Z,98873.34
2022-09-03T11:19:52.890Z,98865.59
2022-09-03T11:22:23.188Z,98859.63
2022-09-03T11:24:58.148Z,98876.13
2022-09-03T11:27:26.107Z,98872.66
2022-09-03T11:30:00.354Z,98871.22
2022-09-03T11:32:55.641Z,98869.81
2022-09-03T11:35:34.051Z,98859.72
2022-09-03T11:38:16.589Z,98854.97
2022-09-03T11:41:01.720Z,98849.28
2022-09-03T11:43:31.524Z,98843.09
2022-09-03T11:46:14.668Z,98841.44
2022-09-03T11:48:44.369Z,98840.06
2022-09-03T11:51:30.145Z,98837.56
2022-09-03T11:54:23.640Z,98845.66
2022-09-03T11:56:50.658Z,98842.50
2022-09-03T11:59:23.552Z,98835.09
2022-09-03T12:02:29.684Z,98822.72
2022-09-03T12:05:05.987Z,98837.66
2022-09-03T12:07:38.512Z,98835.66
2022-09-03T12:10:42.662Z,98832.50
2022-09-03T12:13:47.997Z,98832.34
2022-09-03T12:16:27.146Z,98839.06
2022-09-03T12:19:00.821Z,98828.28
2022-09-03T12:21:27.530Z,98836.75
2022-09-03T12:23:58.282Z,98826.84
2022-09-03T12:26:27.260Z,98828.72
2022-09-03T12:28:56.840Z,98825.97
2022-09-03T12:31:25.271Z,98835.03
2022-09-03T12:34:03.082Z,98830.84
2022-09-03T12:36:41.238Z,98826.91
2022-09-03T12:39:15.090Z,98827.59
2022-09-03T12:42:07.255Z,98818.22
2022-09-03T12:44:36.776Z,98825.72
2022-09-03T12:49:57.143Z,98818.06
2022-09-03T12:52:31.867Z,98817.53
2022-09-03T12:55:05.220Z,98811.34
2022-09-03T12:57:36.726Z,98810.88
2022-09-03T13:00:07.744Z,98807.28
2022-09-03T13:02:48.000Z,98804.72
2022-09-03T13:05:18.750Z,98804.88
2022-09-03T13:07:52.912Z,98805.94
2022-09-03T13:10:32.132Z,98802.88
2022-09-03T13:13:07.462Z,98795.91
2022-09-03T13:15:33.956Z,98797.50
2022-09-03T13:18:20.928Z,98793.28
2022-09-03T13:21:15.465Z,98791.38
2022-09-03T13:24:06.479Z,98794.94
2022-09-03T13:27:08.297Z,98793.28
2022-09-03T13:30:09.143Z,98788.50
2022-09-03T13:32:51.080Z,98792.91
2022-09-03T13:35:35.196Z,98792.22
2022-09-03T13:38:32.829Z,98791.63
2022-09-03T13:41:19.580Z,98792.94
2022-09-03T13:44:05.569Z,98801.25
2022-09-03T13:46:40.010Z,98794.88
2022-09-03T13:49:43.280Z,98802.38
2022-09-03T13:52:22.314Z,98788.81
2022-09-03T13:54:55.969Z,98792.19
2022-09-03T13:57:47.132Z,98798.97
2022-09-03T14:00:26.913Z,98794.59
2022-09-03T14:03:13.021Z,98794.38
2022-09-03T14:05:54.829Z,98789.47
2022-09-03T14:08:58.236Z,98783.75
2022-09-03T14:11:48.683Z,98785.94
2022-09-03T14:14:46.940Z,98794.53
2022-09-03T14:17:16.392Z,98778.78
2022-09-03T14:19:46.842Z,98787.75
2022-09-03T14:22:13.248Z,98776.25
2022-09-03T14:25:10.021Z,98779.19
2022-09-03T14:27:36.791Z,98783.03
2022-09-03T14:30:19.782Z,98782.41
2022-09-03T14:33:11.339Z,98783.88
2022-09-03T14:35:53.170Z,98785.00
2022-09-03T14:38:26.086Z,98787.28
2022-09-03T14:41:05.777Z,98790.78
2022-09-03T14:43:56.859Z,98796.78
2022-09-03T14:46:43.269Z,98786.09
2022-09-03T14:49:28.312Z,98790.25
2022-09-03T14:52:03.439Z,98792.13
2022-09-03T14:54:51.709Z,98793.75
2022-09-03T14:57:42.944Z,98796.47
2022-09-03T15:00:18.283Z,98800.19
2022-09-03T15:03:08.648Z,98800.25
2022-09-03T15:06:03.950Z,98796.59
2022-09-03T15:08:45.511Z,98781.25
2022-09-03T15:11:19.145Z,98778.84
2022-09-03T15:13:52.386Z,98783.97
2022-09-03T15:16:21.786Z,98782.50
2022-09-03T15:19:09.759Z,98782.16
2022-09-03T15:21:48.307Z,98791.69
2022-09-03T15:24:43.229Z,98799.34
2022-09-03T15:27:15.746Z,98799.41
2022-09-03T15:29:57.855Z,98800.78
2022-09-03T15:32:45.625Z,98810.06
2022-09-03T15:35:43.710Z,98812.22
2022-09-03T15:38:51.305Z,98814.69
2022-09-03T15:41:29.930Z,98813.34
2022-09-03T15:44:00.222Z,98814.13
2022-09-03T15:46:30.844Z,98813.41
2022-09-03T15:49:05.378Z,98809.53
2022-09-03T15:51:43.283Z,98819.22
2022-09-03T15:54:34.561Z,98820.84
2022-09-03T15:57:12.537Z,98823.53
2022-09-03T15:59:45.412Z,98824.22
2022-09-03T16:02:15.185Z,98831.88
2022-09-03T16:05:13.767Z,98829.25
2022-09-03T16:08:12.353Z,98838.13
2022-09-03T16:11:22.820Z,98860.88
2022-09-03T16:13:55.643Z,98869.03
2022-09-03T16:16:31.815Z,98864.25
2022-09-03T16:19:36.111Z,98874.22
2022-09-03T16:22:29.038Z,98880.94
2022-09-03T16:25:01.024Z,98891.97
2022-09-03T16:27:43.745Z,98893.22
2022-09-03T16:30:13.024Z,98894.16
2022-09-03T16:32:42.334Z,98901.25
2022-09-03T16:35:23.554Z,98903.97
2022-09-03T16:38:06.592Z,98900.13
2022-09-03T16:40:37.933Z,98910.75
2022-09-03T16:43:42.426Z,98909.78
2022-09-03T16:46:28.677Z,98907.91
2022-09-03T16:49:38.356Z,98904.59
2022-09-03T16:52:37.582Z,98923.72
2022-09-03T16:55:32.162Z,98931.69
2022-09-03T16:58:10.772Z,98937.72
2022-09-03T17:01:00.940Z,98942.75
2022-09-03T17:03:46.247Z,98945.66
2022-09-03T17:06:16.537Z,98950.50
2022-09-03T17:09:07.594Z,98951.72
2022-09-03T17:11:58.263Z,98961.78
2022-09-03T17:14:41.241Z,98953.81
2022-09-03T17:17:16.912Z,98969.06
2022-09-03T17:19:49.515Z,98973.25
2022-09-03T17:22:39.432Z,98972.22
2022-09-03T17:25:18.941Z,98976.63
2022-09-03T17:28:00.629Z,98968.03
2022-09-03T17:30:50.254Z,98976.59
2022-09-03T17:33:40.068Z,98969.06
2022-09-03T17:36:13.488Z,98980.75
2022-09-03T17:39:28.535Z,98982.00
2022-09-03T17:42:05.153Z,98977.38
2022-09-03T17:45:03.468Z,98960.63
2022-09-03T17:47:40.101Z,98977.13
2022-09-03T17:50:24.886Z,98982.94
2022-09-03T17:52:59.813Z,98985.25
2022-09-03T17:55:35.951Z,98983.59
2022-09-03T17:58:14.156Z,98988.78
2022-09-03T18:01:07.665Z,98994.81
2022-09-03T18:03:47.093Z,98987.66
2022-09-03T18:06:44.641Z,98983.53
2022-09-03T18:09:17.449Z,98975.72
2022-09-03T18:11:58.999Z,98982.22
2022-09-03T18:14:49.137Z,98985.53
2022-09-03T18:17:37.480Z,98978.88
2022-09-03T18:20:30.537Z,98988.66
2022-09-03T18:23:30.398Z,98985.84
2022-09-03T18:26:21.394Z,98990.06
2022-09-03T18:29:12.383Z,98994.88
2022-09-03T18:31:57.471Z,98997.63
2022-09-03T18:34:49.931Z,99000.44
2022-09-03T18:37:41.523Z,99005.00
2022-09-03T18:40:29.124Z,99013.28
2022-09-03T18:43:23.840Z,99016.78
2022-09-03T18:49:35.308Z,99015.97
2022-09-03T18:52:28.888Z,99021.56
2022-09-03T18:55:13.911Z,99019.00
2022-09-03T18:58:14.695Z,99024.56
2022-09-03T19:01:10.919Z,99037.13
2022-09-03T19:04:14.610Z,99043.56
2022-09-03T19:07:11.969Z,99040.84
2022-09-03T19:10:07.386Z,99049.84
2022-09-03T19:12:59.628Z,99051.06
2022-09-03T19:15:50.269Z,99061.66
2022-09-03T19:18:50.255Z,99063.09
2022-09-03T19:21:47.564Z,99061.41
2022-09-03T19:24:32.874Z,99066.44
2022-09-03T19:27:51.715Z,99066.44
2022-09-03T19:30:38.877Z,99075.22
2022-09-03T19:33:39.341Z,99080.84
2022-09-03T19:36:25.495Z,99081.25
2022-09-03T19:39:29.420Z,99084.16
2022-09-03T19:42:51.593Z,99094.75
2022-09-03T19:45:53.917Z,99098.09
2022-09-03T19:48:58.139Z,99103.06
2022-09-03T19:51:53.533Z,99102.22
2022-09-03T19:54:44.729Z,99107.44
2022-09-03T19:57:34.266Z,99106.09
2022-09-03T20:00:31.325Z,99112.31
2022-09-03T20:03:20.525Z,99117.50
2022-09-03T20:06:10.776Z,99120.44
2022-09-03T20:08:57.234Z,99118.75
2022-09-03T20:11:27.540Z,99119.75
2022-09-03T20:14:14.770Z,99121.19
2022-09-03T20:17:03.275Z,99120.19
2022-09-03T20:20:06.897Z,99131.41
2022-09-03T20:23:01.432Z,99136.81
2022-09-03T20:25:36.959Z,99131.41
2022-09-03T20:28:12.495Z,99133.66
2022-09-03T20:30:47.006Z,99131.78
2022-09-03T20:33:25.812Z,99144.66
2022-09-03T20:36:01.729Z,99141.28
2022-09-03T20:38:40.035Z,99143.50
2022-09-03T20:41:24.767Z,99139.91
2022-09-03T20:44:18.995Z,99150.75
2022-09-03T20:47:10.877Z,99144.00
2022-09-03T20:49:43.412Z,99145.22
2022-09-03T20:52:36.926Z,99156.16
2022-09-03T20:55:17.900Z,99145.78
2022-09-03T20:57:53.635Z,99149.72
2022-09-03T21:00:21.216Z,99151.19
2022-09-03T21:03:07.464Z,99153.47
2022-09-03T21:06:08.301Z,99157.34
2022-09-03T21:08:43.786Z,99156.72
2022-09-03T21:11:10.294Z,99159.97
2022-09-03T21:14:33.449Z,99160.84
2022-09-03T21:17:21.118Z,99156.91
2022-09-03T21:20:09.092Z,99161.69
2022-09-03T21:22:53.737Z,99161.88
2022-09-03T21:25:30.008Z,99159.16
2022-09-03T21:28:03.135Z,99162.31
2022-09-03T21:30:31.591Z,99160.84
2022-09-03T21:33:21.766Z,99166.63
2022-09-03T21:36:24.249Z,99166.81
2022-09-03T21:39:05.580Z,99164.00
2022-09-03T21:41:47.493Z,99160.28
2022-09-03T21:44:25.953Z,99162.31
2022-09-03T21:47:02.190Z,99162.72
2022-09-03T21:49:34.997Z,99158.88
2022-09-03T21:52:11.456Z,99165.16
2022-09-03T21:54:38.154Z,99163.44
2022-09-03T21:57:26.185Z,99173.06
2022-09-03T22:00:18.966Z,99169.25
2022-09-03T22:02:49.403Z,99171.31
2022-09-03T22:05:18.371Z,99175.03
2022-09-03T22:08:03.815Z,99185.22
2022-09-03T22:10:39.438Z,99184.94
2022-09-03T22:13:15.135Z,99182.59
2022-09-03T22:15:48.089Z,99181.22
2022-09-03T22:18:28.800Z,99183.94
2022-09-03T22:21:24.756Z,99180.41
2022-09-03T22:23:55.565Z,99181.59
2022-09-03T22:26:32.214Z,99177.88
2022-09-03T22:29:07.880Z,99186.38
2022-09-03T22:31:59.020Z,99184.94
2022-09-03T22:34:47.361Z,99184.66
2022-09-03T22:37:23.733Z,99176.72
2022-09-03T22:39:50.376Z,99183.56
2022-09-03T22:42:35.580Z,99184.56
2022-09-03T22:45:18.745Z,99195.59
2022-09-03T22:48:12.572Z,99181.69
2022-09-03T22:50:55.278Z,99192.53
2022-09-03T22:53:33.876Z,99192.88
2022-09-03T22:56:15.038Z,99183.81
2022-09-03T22:58:55.825Z,99190.28
2022-09-03T23:01:34.750Z,99192.25
2022-09-03T23:04:05.939Z,99193.66
2022-09-03T23:06:38.425Z,99206.53
2022-09-03T23:09:08.894Z,99202.78
2022-09-03T23:11:47.394Z,99213.34
2022-09-03T23:14:21.319Z,99213.06
2022-09-03T23:16:52.661Z,99219.22
2022-09-03T23:19:40.914Z,99208.09
2022-09-03T23:22:13.201Z,99213.06
2022-09-03T23:25:02.635Z,99219.31
2022-09-03T23:27:39.147Z,99214.25
2022-09-03T23:30:06.594Z,99222.56
2022-09-03T23:32:34.098Z,99225.06
2022-09-03T23:35:03.966Z,99221.25
2022-09-03T23:37:56.617Z,99228.25
2022-09-03T23:40:42.678Z,99229.44
2022-09-03T23:43:22.499Z,99222.44
2022-09-03T23:46:04.149Z,99220.78
2022-09-03T23:48:42.926Z,99228.53
2022-09-03T23:51:29.152Z,99231.59
2022-09-03T23:54:43.868Z,99221.78
2022-09-03T23:57:28.048Z,99234.38
